Portada
METAR-TAF:

METAR-TAF

Aeroports :

Aeroport de Brussel·les

Brussel·les, Bèlgica

latitud: 50-54N, longitud: 004-32E, altitud: 55 m

Observació

L'informe es va fer fa 38 minuts, a les 04:20 UTC
Vent 1 kt del Est/Sud-Est
Temperatura 7°C
Humitat 76%
Pressió 1019 hPa
Visibilitat 10 km o més
sense núvols per sota de 1500 mi sense presència de cumulonimbus.

METAR: EBBR 210420Z 12001KT CAVOK 07/03 Q1019 NOSIG

Hora: 06:58 (04:58 UTC)

Pronòstic

L'informe es va fer fa 5 hores i 48 minuts, a les 23:10 UTC
Pronòstic vàlid del 21 a les 00 UTC al 22 a les 06 UTC
Vent 5 kt del Est
Visibilitat 10 km o més
sense núvols per sota de 1500 mi sense presència de cumulonimbus.

TAF: EBBR 202310Z 2100/2206 10005KT CAVOK

Observacions i pronòstics meteorològics de més de 4000 aeroports (METAR i TAF).

Les estacions disponibles són els punts grocs i vermells al mapa.

Posi el ratolí al punt desitjat per veure el nom de l'estació.

Feu clic per veure les observacions i els pronòstics meteorològics.

Per canviar el mapa: feu clic els botons verds amb una creu de color negre per apropar; al botó verd amb un guió per allunyar la imatge; o en les fletxes verdes per a mapes adjacents.


METAR-TAF: